Elgin, Arizona
Current Conditions -  °F | °C
As of 4:56 PM on Monday 24 Nov 2014 (Local Time) from KALK Reporting Station
Clear Clear  
Wind Chill: 51°   Ceiling: Unl
Heat Index: 51°   Visibility: 10mi
Dew Point: -5°   Wind: 10mph
Humidity: 10%   Direction: 300°WNW
Pressure: 30.22"   Gusts: NA
Location:  31.66°N, 110.53°W
Report Text: KALK 242356Z AUTO 30009KT 10SM CLR 11/M21 A3022 RMK AO2 SLP195 T01061206 10144 20106 53007 TSNO
Loading
Personal Weather Stations






























Interactive Weather Map New forecast layout! Learn more

10-Day Weather Forecast

Advertisements
Track Severe Weather on mobile